Time;durP1;ratioP1;P1;durP2;ratioP2;P2;SDS_P1;SDS_P2;PMS_P1;PMS_P2;Temp;Humidity;BMP_temperature;BMP_pressure;BME280_temperature;BME280_humidity;BME280_pressure;Samples;Min_cycle;Max_cycle;Signal;HPM_P1;HPM_P2
2021/07/20 00:02:12;;;;;;;17.30;15.27;;;13.50;99.90;;;;;;5018968;28;20558;-54
2021/07/20 00:04:44;;;;;;;17.90;14.77;;;13.50;99.90;;;;;;5004266;28;20509;-55
2021/07/20 00:07:14;;;;;;;21.13;15.07;;;13.40;99.90;;;;;;4998954;28;20523;-55
2021/07/20 00:09:43;;;;;;;17.13;15.00;;;13.30;99.90;;;;;;4998603;28;20952;-52
2021/07/20 00:12:16;;;;;;;16.50;14.80;;;13.40;99.90;;;;;;5006193;28;20468;-50
2021/07/20 00:14:43;;;;;;;16.70;14.90;;;13.20;99.90;;;;;;5018297;28;20963;-57
2021/07/20 00:17:10;;;;;;;17.60;14.40;;;13.20;99.90;;;;;;5018789;28;20555;-56
2021/07/20 00:19:37;;;;;;;17.20;14.63;;;13.10;99.90;;;;;;5018248;28;20733;-58
2021/07/20 00:22:06;;;;;;;15.83;13.43;;;13.10;99.90;;;;;;5008626;28;20461;-57
2021/07/20 00:24:33;;;;;;;16.30;13.93;;;13.10;99.90;;;;;;4998396;28;20468;-58
2021/07/20 00:27:00;;;;;;;18.70;14.83;;;13.10;99.90;;;;;;4998494;28;20906;-57
2021/07/20 00:29:27;;;;;;;18.37;14.30;;;13.10;99.90;;;;;;5007723;28;20889;-58
2021/07/20 00:31:54;;;;;;;23.10;15.63;;;13.00;99.90;;;;;;5018241;28;20977;-57
2021/07/20 00:34:21;;;;;;;16.60;14.90;;;13.00;99.90;;;;;;5018193;28;20522;-59
2021/07/20 00:36:48;;;;;;;17.47;14.83;;;13.00;99.90;;;;;;5017931;28;20468;-59
2021/07/20 00:39:16;;;;;;;17.73;14.47;;;13.00;99.90;;;;;;5007663;28;20760;-57
2021/07/20 00:41:43;;;;;;;17.17;14.30;;;13.00;99.90;;;;;;4998136;28;20537;-57
2021/07/20 00:44:10;;;;;;;17.60;13.67;;;13.00;99.90;;;;;;4998283;28;20504;-55
2021/07/20 00:46:38;;;;;;;17.83;14.23;;;12.90;99.90;;;;;;5007727;28;20528;-57
2021/07/20 00:49:05;;;;;;;18.13;14.10;;;12.90;99.90;;;;;;5018282;28;20460;-59
2021/07/20 00:51:32;;;;;;;16.47;14.33;;;12.90;99.90;;;;;;5017686;28;20467;-59
2021/07/20 00:53:59;;;;;;;16.87;14.43;;;12.80;99.90;;;;;;5017715;28;20468;-57
2021/07/20 00:56:28;;;;;;;15.30;13.43;;;12.70;99.90;;;;;;5017516;28;20500;-56
2021/07/20 00:58:56;;;;;;;15.77;14.17;;;12.60;99.90;;;;;;5018082;28;20464;-57
2021/07/20 01:01:23;;;;;;;17.93;14.90;;;12.60;99.90;;;;;;5018318;28;20472;-56
2021/07/20 01:03:53;;;;;;;15.53;13.47;;;12.60;99.90;;;;;;5017490;28;20523;-59
2021/07/20 01:06:25;;;;;;;20.27;15.10;;;12.60;99.90;;;;;;5008769;28;20479;-59
2021/07/20 01:08:52;;;;;;;17.87;14.80;;;12.50;99.90;;;;;;5017514;28;20448;-57
2021/07/20 01:11:20;;;;;;;16.27;14.13;;;12.50;99.90;;;;;;5017101;28;20452;-58
2021/07/20 01:13:51;;;;;;;20.20;18.10;;;12.50;99.90;;;;;;5016845;28;20955;-59
2021/07/20 01:16:19;;;;;;;18.40;15.37;;;12.50;99.90;;;;;;5009449;28;20431;-56
2021/07/20 01:18:49;;;;;;;16.80;14.20;;;12.50;99.90;;;;;;5017164;28;20468;-57
2021/07/20 01:21:17;;;;;;;16.60;14.33;;;12.50;99.90;;;;;;5017669;28;20503;-58
2021/07/20 01:23:50;;;;;;;16.00;14.00;;;12.40;99.90;;;;;;5017384;28;20978;-59
2021/07/20 01:26:18;;;;;;;19.30;14.73;;;12.40;99.90;;;;;;5017690;28;20554;-59
2021/07/20 01:28:47;;;;;;;21.90;15.77;;;12.40;99.90;;;;;;5017417;28;20460;-58
2021/07/20 01:31:17;;;;;;;18.00;15.50;;;12.40;99.90;;;;;;5017661;28;20514;-59
2021/07/20 01:33:48;;;;;;;16.07;13.20;;;12.40;99.90;;;;;;5017284;28;20460;-58
2021/07/20 01:36:17;;;;;;;17.40;14.00;;;12.40;99.90;;;;;;5017183;28;20522;-54
2021/07/20 01:38:47;;;;;;;16.07;14.23;;;12.30;99.90;;;;;;5017136;28;20467;-60
2021/07/20 01:41:16;;;;;;;16.50;13.70;;;12.30;99.90;;;;;;5008885;28;20521;-59
2021/07/20 01:43:46;;;;;;;18.40;14.50;;;12.20;99.90;;;;;;4997431;28;20496;-58
2021/07/20 01:46:14;;;;;;;16.63;14.83;;;12.30;99.90;;;;;;5004145;28;20467;-58
2021/07/20 01:48:45;;;;;;;15.67;13.97;;;12.20;99.90;;;;;;5017459;28;20555;-58
2021/07/20 01:51:12;;;;;;;19.37;13.97;;;12.20;99.90;;;;;;5017734;28;20456;-58
2021/07/20 01:53:42;;;;;;;15.67;13.90;;;12.20;99.90;;;;;;5016983;28;20460;-59
2021/07/20 01:56:12;;;;;;;15.67;13.83;;;12.10;99.90;;;;;;5017489;28;20468;-56
2021/07/20 01:58:42;;;;;;;17.00;13.27;;;12.10;99.90;;;;;;5017191;28;20467;-59
2021/07/20 02:01:14;;;;;;;20.67;13.50;;;12.10;99.90;;;;;;5017373;28;20475;-59
2021/07/20 02:04:19;;;;;;;18.60;13.60;;;12.10;99.90;;;;;;5010596;28;20547;-59
2021/07/20 02:09:48;;;;;;;16.53;13.63;;;11.90;99.90;;;;;;4937274;29;20439;-58
2021/07/20 02:12:17;;;;;;;14.83;13.33;;;12.00;99.90;;;;;;4991093;28;20768;-58
2021/07/20 02:14:48;;;;;;;18.73;14.30;;;12.00;99.90;;;;;;5010403;28;20483;-58
2021/07/20 02:17:16;;;;;;;20.70;14.70;;;11.90;99.90;;;;;;5020950;28;20460;-57
2021/07/20 02:19:47;;;;;;;17.90;14.30;;;11.90;99.90;;;;;;5020439;28;20533;-59
2021/07/20 02:22:19;;;;;;;15.83;13.27;;;11.80;99.90;;;;;;5010866;28;20461;-59
2021/07/20 02:24:49;;;;;;;17.30;12.77;;;11.80;99.90;;;;;;5001418;28;21002;-59
2021/07/20 02:27:19;;;;;;;19.20;14.57;;;11.80;99.90;;;;;;5001277;28;20469;-59
2021/07/20 02:29:48;;;;;;;17.03;12.67;;;11.70;99.90;;;;;;5012022;28;20595;-60
2021/07/20 02:32:16;;;;;;;18.50;13.93;;;11.70;99.90;;;;;;5020596;28;20522;-59
2021/07/20 02:34:45;;;;;;;19.97;14.60;;;11.70;99.90;;;;;;5020565;28;20460;-59
2021/07/20 02:37:13;;;;;;;18.77;15.50;;;11.80;99.90;;;;;;5020628;28;20464;-58
2021/07/20 02:39:42;;;;;;;19.10;15.47;;;11.70;99.90;;;;;;5007798;28;20765;-59
2021/07/20 02:42:10;;;;;;;20.17;15.47;;;11.80;99.90;;;;;;5000844;28;20464;-59
2021/07/20 02:44:40;;;;;;;16.47;14.77;;;11.70;99.90;;;;;;5001129;28;20500;-60
2021/07/20 02:47:08;;;;;;;16.63;13.47;;;11.60;99.90;;;;;;5014627;28;20522;-59
2021/07/20 02:49:38;;;;;;;16.17;13.70;;;11.60;99.90;;;;;;5020142;28;20445;-60
2021/07/20 02:52:07;;;;;;;16.63;14.30;;;11.50;99.90;;;;;;5020027;28;20468;-60
2021/07/20 02:54:35;;;;;;;18.90;14.13;;;11.50;99.90;;;;;;5020328;28;20435;-59
2021/07/20 02:57:04;;;;;;;15.60;13.70;;;11.50;99.90;;;;;;5020568;28;20532;-60
2021/07/20 02:59:33;;;;;;;21.93;14.70;;;11.40;99.90;;;;;;5019629;28;20472;-59
2021/07/20 03:02:03;;;;;;;17.43;14.90;;;11.40;99.90;;;;;;5019514;28;20832;-59
2021/07/20 03:04:30;;;;;;;17.27;14.40;;;11.40;99.90;;;;;;5009304;28;20500;-57
2021/07/20 03:07:00;;;;;;;21.77;15.77;;;11.50;99.90;;;;;;5019564;28;20881;-60
2021/07/20 03:09:30;;;;;;;17.80;14.80;;;11.40;99.90;;;;;;5019785;28;20452;-60
2021/07/20 03:12:01;;;;;;;18.20;15.83;;;11.40;99.90;;;;;;5019820;28;20757;-57
2021/07/20 03:14:31;;;;;;;17.73;14.60;;;11.30;99.90;;;;;;5012310;28;20970;-60
2021/07/20 03:17:01;;;;;;;17.83;14.30;;;11.30;99.90;;;;;;5020308;28;20499;-60
2021/07/20 03:19:31;;;;;;;17.40;14.77;;;11.30;99.90;;;;;;5019483;28;20821;-60
2021/07/20 03:22:04;;;;;;;15.90;13.70;;;11.30;99.90;;;;;;5012043;28;20435;-61
2021/07/20 03:24:31;;;;;;;20.77;15.33;;;11.20;99.90;;;;;;4999748;28;20483;-60
2021/07/20 03:26:59;;;;;;;19.90;13.80;;;11.10;99.90;;;;;;5000045;28;20818;-60
2021/07/20 03:29:28;;;;;;;17.40;14.00;;;11.20;99.90;;;;;;5008757;28;20793;-60
2021/07/20 03:31:59;;;;;;;21.13;13.67;;;11.20;99.90;;;;;;5019408;28;20460;-61
2021/07/20 03:34:28;;;;;;;17.10;14.30;;;11.20;99.90;;;;;;5019199;28;20829;-61
2021/07/20 03:36:56;;;;;;;17.63;14.17;;;11.10;99.90;;;;;;5019452;28;20559;-61
2021/07/20 03:39:25;;;;;;;20.80;15.27;;;11.10;99.90;;;;;;5009369;28;20482;-60
2021/07/20 03:41:53;;;;;;;14.77;13.10;;;11.10;99.90;;;;;;4999621;28;20462;-61
2021/07/20 03:44:21;;;;;;;18.20;15.03;;;11.10;99.90;;;;;;4999535;28;20507;-60
2021/07/20 03:46:48;;;;;;;16.17;13.70;;;11.10;99.90;;;;;;5010666;28;20438;-61
2021/07/20 03:49:16;;;;;;;16.63;13.57;;;11.00;99.90;;;;;;5019207;28;20494;-61
2021/07/20 03:51:46;;;;;;;19.40;16.20;;;11.10;99.90;;;;;;5018958;28;20546;-61
2021/07/20 03:54:14;;;;;;;17.27;15.30;;;11.10;99.90;;;;;;5019367;28;20542;-61
2021/07/20 03:56:42;;;;;;;22.00;16.87;;;11.20;99.90;;;;;;5018992;28;20464;-61
2021/07/20 03:59:13;;;;;;;20.70;17.87;;;11.10;99.90;;;;;;5019415;28;20467;-61
2021/07/20 04:01:41;;;;;;;20.53;17.20;;;11.20;99.90;;;;;;5019003;28;20513;-61
2021/07/20 04:04:10;;;;;;;22.00;15.97;;;11.20;99.90;;;;;;5009612;28;20492;-61
2021/07/20 04:06:41;;;;;;;17.67;14.60;;;11.20;99.90;;;;;;5016569;28;20507;-61
2021/07/20 04:09:11;;;;;;;18.30;14.87;;;11.20;99.90;;;;;;5018657;28;20456;-61
2021/07/20 04:11:40;;;;;;;15.53;13.60;;;11.20;99.90;;;;;;5018376;28;20551;-61
2021/07/20 04:14:10;;;;;;;17.40;13.07;;;11.20;99.90;;;;;;5010314;28;20522;-61
2021/07/20 04:16:38;;;;;;;16.80;15.00;;;11.20;99.90;;;;;;5018668;28;20515;-61
2021/07/20 04:19:06;;;;;;;16.77;13.67;;;11.20;99.90;;;;;;5018868;28;20912;-61
2021/07/20 04:21:33;;;;;;;17.77;14.43;;;11.30;99.90;;;;;;5013215;28;20432;-61
2021/07/20 04:24:00;;;;;;;20.43;15.00;;;11.30;99.90;;;;;;4998813;28;20500;-61
2021/07/20 04:26:29;;;;;;;16.43;14.63;;;11.40;99.90;;;;;;4998378;28;20523;-61
2021/07/20 04:28:57;;;;;;;17.07;14.40;;;11.40;99.90;;;;;;5003654;28;20749;-61
2021/07/20 04:31:27;;;;;;;17.70;14.63;;;11.50;99.90;;;;;;5017980;28;20472;-61
2021/07/20 04:33:55;;;;;;;17.20;13.83;;;11.60;99.90;;;;;;5018344;28;20495;-61
2021/07/20 04:36:25;;;;;;;15.17;12.33;;;11.60;99.90;;;;;;5018042;28;20468;-61
2021/07/20 04:38:55;;;;;;;16.90;14.77;;;11.70;99.90;;;;;;5010854;28;20581;-61
2021/07/20 04:41:22;;;;;;;18.70;14.77;;;11.70;99.90;;;;;;4998756;28;20894;-61
2021/07/20 04:43:51;;;;;;;15.43;13.00;;;11.70;99.90;;;;;;4998450;28;20974;-61
2021/07/20 04:46:21;;;;;;;15.67;13.97;;;11.80;99.90;;;;;;5005266;28;20897;-61
2021/07/20 04:48:48;;;;;;;17.60;14.63;;;11.80;99.90;;;;;;5018303;28;20463;-61
2021/07/20 04:51:16;;;;;;;19.33;14.50;;;11.90;99.90;;;;;;5017689;28;20550;-61
2021/07/20 05:28:20;;;;;;;27.43;15.90;;;12.50;99.90;;;;;;5194274;23;20530;-59
2021/07/20 05:30:51;;;;;;;18.03;14.73;;;12.50;99.90;;;;;;5017499;28;20478;-59
2021/07/20 05:33:19;;;;;;;16.53;14.67;;;12.70;99.90;;;;;;5017940;28;20558;-60
2021/07/20 05:35:51;;;;;;;17.57;14.93;;;12.80;99.90;;;;;;5017636;28;20900;-60
2021/07/20 05:38:19;;;;;;;19.23;15.87;;;13.00;99.90;;;;;;5015692;28;20923;-59
2021/07/20 05:40:46;;;;;;;18.83;15.93;;;13.20;99.90;;;;;;4997732;28;20901;-59
2021/07/20 05:43:14;;;;;;;27.37;17.07;;;13.20;99.90;;;;;;4998059;28;20519;-59
2021/07/20 05:45:44;;;;;;;23.67;16.30;;;13.50;99.90;;;;;;5003689;28;20937;-59
2021/07/20 05:48:16;;;;;;;24.87;17.20;;;13.80;99.90;;;;;;5017352;28;20464;-59
2021/07/20 05:50:49;;;;;;;24.67;16.27;;;13.90;99.90;;;;;;5019802;28;20880;-59
2021/07/20 05:53:17;;;;;;;18.90;16.53;;;14.20;99.90;;;;;;5021154;28;20475;-59
2021/07/20 05:55:48;;;;;;;20.73;16.33;;;14.40;99.90;;;;;;5021382;28;20526;-59
2021/07/20 05:58:16;;;;;;;17.63;15.80;;;14.70;99.90;;;;;;5021028;28;20502;-59
2021/07/20 06:00:49;;;;;;;19.60;17.20;;;15.00;99.90;;;;;;5021077;28;21041;-59
2021/07/20 06:03:18;;;;;;;22.30;17.50;;;15.30;99.90;;;;;;5014902;28;20468;-59
2021/07/20 06:05:48;;;;;;;27.57;20.43;;;15.60;99.90;;;;;;5016222;28;20554;-59
2021/07/20 06:08:17;;;;;;;28.63;19.23;;;15.80;99.90;;;;;;5020324;28;20752;-59
2021/07/20 06:10:46;;;;;;;25.80;19.37;;;15.90;99.90;;;;;;5020941;28;20475;-59
2021/07/20 06:13:18;;;;;;;23.00;20.50;;;15.90;99.90;;;;;;5020172;28;20845;-59
2021/07/20 06:15:48;;;;;;;28.57;23.27;;;15.90;99.90;;;;;;5020831;28;20518;-59
2021/07/20 06:18:15;;;;;;;25.43;20.83;;;16.00;99.90;;;;;;5021124;28;20526;-59
2021/07/20 06:20:47;;;;;;;26.93;21.73;;;16.00;99.90;;;;;;5020636;28;20442;-58
2021/07/20 06:23:15;;;;;;;23.50;21.00;;;16.20;99.90;;;;;;5001013;28;20519;-59
2021/07/20 06:25:43;;;;;;;28.47;22.10;;;16.20;99.90;;;;;;5001066;28;20550;-58
2021/07/20 06:28:11;;;;;;;28.83;22.70;;;16.50;99.90;;;;;;5000684;28;20528;-59
2021/07/20 06:30:40;;;;;;;25.50;22.23;;;16.60;99.90;;;;;;5019052;28;20490;-59
2021/07/20 06:33:09;;;;;;;26.03;22.50;;;16.60;99.90;;;;;;5020202;28;20459;-58
2021/07/20 06:35:40;;;;;;;28.33;23.10;;;16.80;99.90;;;;;;5020484;28;20459;-58
2021/07/20 06:38:09;;;;;;;27.97;23.50;;;17.10;99.90;;;;;;5018547;28;20502;-58
2021/07/20 06:40:37;;;;;;;24.00;20.60;;;17.50;99.90;;;;;;5000943;28;20810;-58
2021/07/20 06:43:06;;;;;;;27.37;21.87;;;17.70;99.90;;;;;;5000608;28;20472;-58
2021/07/20 06:45:36;;;;;;;25.27;20.50;;;18.00;99.90;;;;;;5001646;28;20497;-58
2021/07/20 06:48:03;;;;;;;22.03;19.40;;;18.00;99.90;;;;;;5020604;28;20464;-58
2021/07/20 06:50:32;;;;;;;22.53;19.53;;;18.20;99.90;;;;;;5020011;28;20471;-57
2021/07/20 06:52:59;;;;;;;25.43;19.50;;;18.30;99.90;;;;;;5020097;28;20474;-58
2021/07/20 06:55:28;;;;;;;21.40;17.77;;;18.40;99.90;;;;;;5020267;28;20464;-57
2021/07/20 06:57:55;;;;;;;23.13;19.13;;;18.40;99.90;;;;;;5020579;28;20481;-57
2021/07/20 07:00:23;;;;;;;24.37;19.57;;;18.50;99.90;;;;;;5020022;28;20558;-57
2021/07/20 07:02:58;;;;;;;20.93;18.37;;;18.60;99.90;;;;;;5016311;28;20486;-57
2021/07/20 07:05:28;;;;;;;22.03;19.40;;;19.00;99.90;;;;;;5017873;28;21063;-57
2021/07/20 07:08:01;;;;;;;19.90;17.73;;;19.20;99.90;;;;;;5019922;28;20471;-57
2021/07/20 07:10:28;;;;;;;24.90;19.30;;;19.20;99.90;;;;;;5026829;28;20460;-57
2021/07/20 07:12:59;;;;;;;20.77;18.57;;;19.10;99.90;;;;;;5020680;28;20814;-53
2021/07/20 07:15:27;;;;;;;23.47;18.60;;;19.40;99.90;;;;;;5028431;28;20554;-56
2021/07/20 07:17:54;;;;;;;22.30;18.10;;;19.70;99.90;;;;;;5019785;28;20529;-55
2021/07/20 07:20:26;;;;;;;23.03;19.10;;;20.30;99.90;;;;;;5019337;28;20456;-50
2021/07/20 07:22:54;;;;;;;19.83;17.70;;;20.40;99.90;;;;;;5028115;28;20635;-56
2021/07/20 07:25:23;;;;;;;19.10;17.07;;;20.50;99.90;;;;;;5020298;28;20492;-55
2021/07/20 07:27:54;;;;;;;20.10;17.40;;;20.30;99.90;;;;;;5016880;28;20733;-55
2021/07/20 07:30:23;;;;;;;20.23;18.00;;;20.50;99.90;;;;;;5023857;28;20456;-56
2021/07/20 07:32:50;;;;;;;18.97;17.00;;;21.00;99.90;;;;;;5021141;28;20530;-56
2021/07/20 07:35:20;;;;;;;21.70;16.47;;;21.00;99.90;;;;;;5025177;28;20451;-57
2021/07/20 07:37:50;;;;;;;21.90;15.97;;;21.20;99.90;;;;;;5030701;28;20455;-56
2021/07/20 07:40:19;;;;;;;20.33;18.23;;;21.40;99.90;;;;;;5025824;28;20470;-57
2021/07/20 07:42:49;;;;;;;20.20;16.03;;;21.70;98.60;;;;;;5023348;28;20546;-56
2021/07/20 07:45:19;;;;;;;21.83;14.90;;;21.70;96.80;;;;;;5035678;28;20488;-53
2021/07/20 07:47:49;;;;;;;17.83;16.03;;;21.70;97.70;;;;;;5023121;28;20460;-57
2021/07/20 07:50:18;;;;;;;19.00;17.07;;;21.90;96.80;;;;;;5025549;28;20849;-56
2021/07/20 07:52:45;;;;;;;21.97;15.50;;;21.80;99.10;;;;;;5030781;28;20463;-56
2021/07/20 07:55:14;;;;;;;17.13;15.43;;;22.20;96.30;;;;;;5038648;28;20577;-57
2021/07/20 08:35:15;;;;;;;16.47;14.70;;;25.00;66.00;;;;;;5331361;23;20418;-57
2021/07/20 08:37:55;;;;;;;15.30;13.80;;;24.80;67.80;;;;;;5018537;28;20517;-56
2021/07/20 08:40:37;;;;;;;14.77;13.27;;;23.80;67.50;;;;;;5017865;28;20547;-56
2021/07/20 08:43:23;;;;;;;14.40;12.90;;;24.50;69.70;;;;;;5018137;28;20893;-53
2021/07/20 08:46:09;;;;;;;14.37;13.07;;;23.30;65.20;;;;;;5017893;28;20499;-57
2021/07/20 08:48:44;;;;;;;16.83;13.03;;;23.00;72.90;;;;;;5016584;28;20464;-58
2021/07/20 08:51:15;;;;;;;14.70;13.20;;;23.20;73.00;;;;;;5017360;28;20514;-55
2021/07/20 08:53:52;;;;;;;15.57;14.00;;;23.50;75.20;;;;;;5017953;28;20464;-56
2021/07/20 08:56:22;;;;;;;15.67;14.20;;;23.90;74.30;;;;;;5017505;28;20460;-53
2021/07/20 08:58:55;;;;;;;14.90;13.50;;;24.00;69.00;;;;;;5018078;28;20464;-53
2021/07/20 09:01:33;;;;;;;17.90;14.67;;;23.20;73.30;;;;;;5018240;28;20475;-56
2021/07/20 09:04:06;;;;;;;14.47;13.07;;;23.40;76.80;;;;;;5005371;28;20469;-54
2021/07/20 09:06:42;;;;;;;14.40;12.37;;;23.70;71.50;;;;;;5017338;28;20549;-58
2021/07/20 09:09:13;;;;;;;13.60;12.13;;;24.50;68.80;;;;;;5017452;28;20464;-58
2021/07/20 09:11:45;;;;;;;15.13;13.47;;;24.90;63.00;;;;;;5017936;28;20887;-57
2021/07/20 09:14:19;;;;;;;13.57;12.00;;;25.30;63.30;;;;;;5017505;28;20489;-57
2021/07/20 09:16:51;;;;;;;13.80;12.57;;;25.00;60.10;;;;;;5018008;28;20455;-56
2021/07/20 09:19:29;;;;;;;14.57;13.10;;;25.10;62.90;;;;;;5018387;28;20794;-58
2021/07/20 09:22:04;;;;;;;13.90;12.50;;;25.50;60.60;;;;;;5017849;28;20518;-51
2021/07/20 09:24:45;;;;;;;13.23;12.00;;;25.70;59.00;;;;;;5016846;28;20464;-56
2021/07/20 09:27:19;;;;;;;13.90;12.50;;;26.10;61.30;;;;;;5017880;28;20464;-57
2021/07/20 09:29:48;;;;;;;13.40;12.03;;;24.60;63.70;;;;;;5016885;28;20966;-56
2021/07/20 09:32:30;;;;;;;12.70;11.30;;;23.40;64.10;;;;;;5017769;28;20468;-59
2021/07/20 09:35:09;;;;;;;13.43;12.10;;;22.40;67.40;;;;;;5017689;28;20464;-52
2021/07/20 09:37:48;;;;;;;13.80;12.40;;;22.30;71.70;;;;;;5016885;28;20911;-58
2021/07/20 09:40:33;;;;;;;13.70;12.40;;;22.30;72.30;;;;;;4997849;28;20511;-56
2021/07/20 09:43:07;;;;;;;15.37;13.80;;;21.60;75.40;;;;;;5017611;28;20463;-57
2021/07/20 09:45:41;;;;;;;14.53;13.00;;;20.90;75.10;;;;;;5017442;28;20999;-58
2021/07/20 09:48:22;;;;;;;12.73;11.40;;;20.80;77.60;;;;;;5017171;28;20464;-56
2021/07/20 09:50:57;;;;;;;12.97;11.00;;;21.60;73.70;;;;;;5017324;28;20463;-54
2021/07/20 09:54:00;;;;;;;13.63;12.27;;;22.30;74.40;;;;;;5017877;28;20554;-54
2021/07/20 09:56:42;;;;;;;12.00;10.90;;;22.50;75.50;;;;;;5016642;28;20448;-54
2021/07/20 09:59:43;;;;;;;11.63;10.50;;;21.90;70.80;;;;;;5016899;28;20493;-55
2021/07/20 10:02:17;;;;;;;13.27;11.40;;;21.40;75.40;;;;;;5013002;28;20534;-56
2021/07/20 10:04:52;;;;;;;13.53;11.20;;;21.50;80.40;;;;;;5005473;28;20464;-56
2021/07/20 10:07:30;;;;;;;17.27;11.50;;;21.30;78.40;;;;;;5011875;28;20514;-56
2021/07/20 10:10:09;;;;;;;14.93;11.30;;;20.50;80.00;;;;;;5021557;28;20455;-51
2021/07/20 10:12:51;;;;;;;12.63;11.30;;;20.40;85.00;;;;;;5025961;28;20746;-57
2021/07/20 10:15:24;;;;;;;14.67;10.73;;;20.10;85.40;;;;;;5019474;28;20893;-55
2021/07/20 10:17:59;;;;;;;12.77;11.37;;;20.30;90.20;;;;;;5033744;28;20467;-58
2021/07/20 10:20:32;;;;;;;12.07;10.50;;;20.60;86.10;;;;;;5031531;28;20905;-56
2021/07/20 10:23:03;;;;;;;12.57;10.93;;;21.00;90.30;;;;;;5016981;28;20467;-55
2021/07/20 10:25:38;;;;;;;10.70;9.60;;;22.50;81.10;;;;;;5017268;28;20500;-57
2021/07/20 10:28:19;;;;;;;11.37;10.17;;;23.30;71.00;;;;;;5016312;28;20533;-55
2021/07/20 10:30:53;;;;;;;11.53;10.20;;;23.30;69.80;;;;;;5017163;28;20474;-52
2021/07/20 10:33:28;;;;;;;10.67;9.70;;;23.60;67.70;;;;;;5016838;28;20541;-57
2021/07/20 10:36:02;;;;;;;11.93;10.77;;;23.40;66.10;;;;;;5017764;28;20483;-57
2021/07/20 10:38:35;;;;;;;10.70;9.67;;;23.30;67.30;;;;;;5019602;28;20468;-48
2021/07/20 10:41:06;;;;;;;9.77;8.87;;;23.40;67.50;;;;;;5020061;28;20472;-57
2021/07/20 10:43:35;;;;;;;10.60;9.70;;;24.10;70.20;;;;;;5020643;28;20514;-58
2021/07/20 10:46:05;;;;;;;11.67;9.20;;;25.00;66.90;;;;;;5020297;28;20512;-54
2021/07/20 10:48:34;;;;;;;11.60;9.93;;;25.80;64.10;;;;;;5020734;28;20796;-57
2021/07/20 10:51:06;;;;;;;10.90;9.90;;;24.90;58.90;;;;;;5020238;28;20464;-52
2021/07/20 10:53:46;;;;;;;11.40;9.80;;;23.90;61.40;;;;;;5020232;28;20460;-57
2021/07/20 11:29:55;;;;;;;9.93;8.97;;;24.50;59.60;;;;;;4864987;23;20461;-54
2021/07/20 12:06:50;;;;;;;11.27;10.17;;;27.30;53.70;;;;;;4716760;23;20484;-58
2021/07/20 12:09:37;;;;;;;9.63;8.60;;;26.10;50.20;;;;;;5009410;28;20469;-59
2021/07/20 12:12:05;;;;;;;10.10;9.10;;;26.80;52.10;;;;;;5005831;28;20525;-59
2021/07/20 12:14:32;;;;;;;9.70;8.90;;;27.40;52.70;;;;;;5018772;28;20803;-58
2021/07/20 12:17:04;;;;;;;10.57;9.67;;;27.90;50.40;;;;;;5018697;28;20498;-58
2021/07/20 12:19:35;;;;;;;11.03;10.00;;;27.20;48.50;;;;;;5018960;28;20475;-58
2021/07/20 12:22:11;;;;;;;11.17;10.20;;;27.20;49.90;;;;;;5018783;28;20502;-59
2021/07/20 12:24:39;;;;;;;10.60;9.60;;;26.40;49.70;;;;;;5018333;28;20562;-56
2021/07/20 12:27:07;;;;;;;10.47;9.00;;;26.10;52.30;;;;;;5018398;28;20496;-60
2021/07/20 12:29:43;;;;;;;10.83;9.73;;;25.00;51.10;;;;;;5018891;28;20943;-59
2021/07/20 12:32:14;;;;;;;10.57;9.50;;;24.60;52.20;;;;;;5019099;28;20506;-58
2021/07/20 12:34:49;;;;;;;11.50;10.30;;;25.10;52.20;;;;;;5018458;28;20829;-58
2021/07/20 12:37:22;;;;;;;10.97;10.00;;;25.90;50.50;;;;;;5018724;28;20471;-59
2021/07/20 12:39:52;;;;;;;9.93;9.10;;;26.10;52.40;;;;;;5018482;28;20471;-59
2021/07/20 12:42:19;;;;;;;10.73;9.83;;;27.50;50.40;;;;;;5018723;28;20493;-59
2021/07/20 12:45:02;;;;;;;10.30;9.40;;;28.40;47.50;;;;;;5018405;28;20486;-58
2021/07/20 13:27:05;;;;;;;11.17;10.17;;;27.20;48.40;;;;;;4813589;23;20460;-59
2021/07/20 13:29:33;;;;;;;13.07;11.67;;;27.30;47.90;;;;;;4979303;28;20462;-59
2021/07/20 13:32:07;;;;;;;12.23;11.03;;;26.60;48.70;;;;;;4978448;28;20465;-60
2021/07/20 13:34:34;;;;;;;11.83;10.60;;;25.90;48.60;;;;;;4978328;28;20474;-59
2021/07/20 13:37:01;;;;;;;12.87;11.57;;;25.80;51.40;;;;;;4978710;28;20454;-59
2021/07/20 14:16:25;;;;;;;11.10;9.90;;;27.50;46.10;;;;;;2679266;23;20475;-57
2021/07/20 14:18:53;;;;;;;10.83;9.80;;;27.90;44.40;;;;;;5002482;28;20486;-57
2021/07/20 14:21:32;;;;;;;11.70;10.57;;;28.10;45.10;;;;;;4988877;28;20462;-57
2021/07/20 14:24:04;;;;;;;11.77;10.70;;;28.30;45.60;;;;;;4982094;28;20457;-57
2021/07/20 14:26:32;;;;;;;10.30;9.37;;;28.00;47.00;;;;;;4982774;28;20556;-58
2021/07/20 14:29:04;;;;;;;11.43;10.30;;;27.40;46.90;;;;;;4982127;28;20469;-58
2021/07/20 14:31:35;;;;;;;9.70;8.80;;;27.40;47.00;;;;;;5001503;28;20979;-57
2021/07/20 14:34:06;;;;;;;10.00;8.93;;;28.00;45.30;;;;;;5001642;28;20925;-57
2021/07/20 14:36:39;;;;;;;14.70;10.60;;;27.50;44.40;;;;;;5001191;28;20431;-56
2021/07/20 14:39:22;;;;;;;9.73;8.90;;;26.90;46.20;;;;;;4981169;28;20467;-58
2021/07/20 14:42:19;;;;;;;10.87;9.87;;;27.40;46.40;;;;;;4962359;29;20466;-58
2021/07/20 14:45:07;;;;;;;12.83;10.63;;;28.00;45.50;;;;;;4962134;28;20832;-58
2021/07/20 14:48:07;;;;;;;11.00;9.90;;;27.40;45.20;;;;;;4990683;28;20763;-58
2021/07/20 14:50:37;;;;;;;10.87;9.97;;;27.80;45.80;;;;;;4994291;28;20439;-58
2021/07/20 14:53:28;;;;;;;11.60;10.50;;;26.90;46.60;;;;;;5000842;28;20924;-56
2021/07/20 14:56:09;;;;;;;11.70;10.60;;;27.00;46.30;;;;;;4973935;28;20477;-57
2021/07/20 14:58:38;;;;;;;10.03;9.13;;;27.20;45.60;;;;;;4979557;28;20469;-58
2021/07/20 15:01:17;;;;;;;10.90;9.80;;;27.30;44.70;;;;;;4980994;28;20468;-57
2021/07/20 15:03:47;;;;;;;11.13;9.90;;;26.20;46.60;;;;;;4971456;28;20470;-58
2021/07/20 15:06:17;;;;;;;9.37;8.57;;;27.20;46.80;;;;;;4974549;28;20502;-57
2021/07/20 15:08:47;;;;;;;11.83;9.80;;;27.10;46.40;;;;;;4961061;28;20463;-56
2021/07/20 15:11:26;;;;;;;10.47;9.40;;;25.60;47.90;;;;;;4960535;28;20466;-56
2021/07/20 15:13:55;;;;;;;10.70;9.60;;;25.50;49.90;;;;;;4982169;28;20461;-56
2021/07/20 15:16:23;;;;;;;12.87;10.37;;;26.20;49.00;;;;;;4981928;28;20572;-54
2021/07/20 15:19:05;;;;;;;9.87;8.87;;;26.50;47.90;;;;;;4999535;28;20468;-57
2021/07/20 15:21:36;;;;;;;10.40;9.40;;;26.40;48.40;;;;;;4985816;28;20462;-57
2021/07/20 15:24:08;;;;;;;9.10;8.10;;;26.70;47.40;;;;;;4980920;28;20741;-57
2021/07/20 15:26:38;;;;;;;10.10;9.03;;;26.90;47.50;;;;;;4982227;28;20513;-57
2021/07/20 15:29:07;;;;;;;9.50;8.60;;;26.90;46.80;;;;;;4976793;28;20919;-57
2021/07/20 15:31:34;;;;;;;8.77;8.07;;;26.60;46.70;;;;;;4980388;28;20465;-57
2021/07/20 15:34:02;;;;;;;9.70;8.87;;;26.90;47.50;;;;;;4980576;28;20465;-57
2021/07/20 15:36:31;;;;;;;10.10;9.17;;;26.00;48.00;;;;;;4980438;28;20528;-57
2021/07/20 15:39:02;;;;;;;12.80;9.40;;;26.50;47.20;;;;;;4980111;28;20573;-57
2021/07/20 15:41:29;;;;;;;10.40;8.87;;;26.60;47.10;;;;;;4980284;28;20477;-57
2021/07/20 15:43:57;;;;;;;9.20;8.40;;;26.50;48.20;;;;;;4980616;28;20469;-57
2021/07/20 15:46:30;;;;;;;10.10;8.40;;;26.80;48.10;;;;;;4981370;28;20584;-57
2021/07/20 15:48:57;;;;;;;10.00;7.80;;;26.70;47.30;;;;;;4999612;28;20886;-57
2021/07/20 15:51:26;;;;;;;10.97;10.07;;;26.60;47.40;;;;;;4991759;28;20955;-57
2021/07/20 15:53:55;;;;;;;9.43;8.63;;;26.40;47.50;;;;;;4979247;28;20466;-57
2021/07/20 15:56:29;;;;;;;10.57;9.13;;;26.10;48.00;;;;;;4978957;28;20497;-58
2021/07/20 15:58:56;;;;;;;8.73;8.03;;;25.70;47.80;;;;;;4978377;28;20508;-56
2021/07/20 16:01:27;;;;;;;9.10;8.30;;;25.90;47.50;;;;;;4979101;28;20768;-56
2021/07/20 16:04:00;;;;;;;9.50;8.60;;;25.60;48.10;;;;;;4970507;28;20474;-57
2021/07/20 16:43:54;;;;;;;8.23;7.23;;;24.50;50.30;;;;;;5206851;23;20811;-57
2021/07/20 16:46:28;;;;;;;9.93;7.73;;;24.30;51.60;;;;;;4986596;28;20924;-57
2021/07/20 16:49:02;;;;;;;8.20;7.50;;;24.40;51.60;;;;;;4998368;28;20469;-58
2021/07/20 16:51:31;;;;;;;8.30;7.40;;;24.60;51.00;;;;;;4998859;28;20641;-57
2021/07/20 16:54:03;;;;;;;8.70;7.33;;;25.00;50.60;;;;;;4998575;28;20469;-56
2021/07/20 16:56:32;;;;;;;7.67;6.97;;;24.50;50.70;;;;;;4998697;28;20469;-58
2021/07/20 16:59:04;;;;;;;8.47;7.73;;;24.80;51.10;;;;;;4998355;28;20469;-58
2021/07/20 17:01:33;;;;;;;8.03;7.17;;;24.30;50.50;;;;;;4998262;28;20527;-56
2021/07/20 17:04:00;;;;;;;8.57;7.67;;;23.70;51.60;;;;;;4975385;28;20724;-57
2021/07/20 17:06:31;;;;;;;8.50;7.60;;;23.80;52.10;;;;;;4978104;28;20544;-57
2021/07/20 17:09:00;;;;;;;7.30;6.70;;;24.10;52.00;;;;;;4977897;28;20458;-56